sensor_id;sensor_type;location;lat;lon;timestamp;P1;durP1;ratioP1;P2;durP2;ratioP2
49978;SDS011;35869;50.990;6.962;2022-07-12T00:02:17;8.77;;;7.85;;
49978;SDS011;35869;50.990;6.962;2022-07-12T00:07:17;8.95;;;7.88;;
49978;SDS011;35869;50.990;6.962;2022-07-12T00:12:17;9.20;;;8.10;;
49978;SDS011;35869;50.990;6.962;2022-07-12T00:17:17;9.55;;;8.38;;
49978;SDS011;35869;50.990;6.962;2022-07-12T00:22:18;11.18;;;8.98;;
49978;SDS011;35869;50.990;6.962;2022-07-12T00:27:18;11.90;;;9.05;;
49978;SDS011;35869;50.990;6.962;2022-07-12T00:32:18;8.63;;;7.82;;
49978;SDS011;35869;50.990;6.962;2022-07-12T00:37:19;9.35;;;8.30;;
49978;SDS011;35869;50.990;6.962;2022-07-12T00:42:20;10.43;;;8.98;;
49978;SDS011;35869;50.990;6.962;2022-07-12T00:47:24;9.10;;;8.00;;
49978;SDS011;35869;50.990;6.962;2022-07-12T00:52:29;9.63;;;8.05;;
49978;SDS011;35869;50.990;6.962;2022-07-12T01:02:31;10.57;;;8.85;;
49978;SDS011;35869;50.990;6.962;2022-07-12T01:07:31;9.57;;;8.55;;
49978;SDS011;35869;50.990;6.962;2022-07-12T01:12:32;10.88;;;9.77;;
49978;SDS011;35869;50.990;6.962;2022-07-12T01:17:32;11.77;;;9.23;;
49978;SDS011;35869;50.990;6.962;2022-07-12T01:22:34;11.13;;;9.07;;
49978;SDS011;35869;50.990;6.962;2022-07-12T01:27:35;10.05;;;8.80;;
49978;SDS011;35869;50.990;6.962;2022-07-12T01:32:38;10.02;;;8.55;;
49978;SDS011;35869;50.990;6.962;2022-07-12T01:37:40;11.18;;;10.07;;
49978;SDS011;35869;50.990;6.962;2022-07-12T01:42:41;15.48;;;11.50;;
49978;SDS011;35869;50.990;6.962;2022-07-12T01:47:42;11.18;;;9.10;;
49978;SDS011;35869;50.990;6.962;2022-07-12T01:52:42;12.82;;;11.50;;
49978;SDS011;35869;50.990;6.962;2022-07-12T01:57:42;11.60;;;10.40;;
49978;SDS011;35869;50.990;6.962;2022-07-12T02:07:45;11.70;;;10.60;;
49978;SDS011;35869;50.990;6.962;2022-07-12T02:17:45;15.05;;;12.13;;
49978;SDS011;35869;50.990;6.962;2022-07-12T02:22:45;16.00;;;12.93;;
49978;SDS011;35869;50.990;6.962;2022-07-12T02:27:46;15.73;;;12.43;;
49978;SDS011;35869;50.990;6.962;2022-07-12T02:32:46;14.52;;;12.05;;
49978;SDS011;35869;50.990;6.962;2022-07-12T02:37:46;16.25;;;12.68;;
49978;SDS011;35869;50.990;6.962;2022-07-12T02:42:48;15.70;;;13.43;;
49978;SDS011;35869;50.990;6.962;2022-07-12T02:47:48;13.85;;;11.63;;
49978;SDS011;35869;50.990;6.962;2022-07-12T02:52:48;17.23;;;13.20;;
49978;SDS011;35869;50.990;6.962;2022-07-12T02:57:49;17.00;;;13.35;;
49978;SDS011;35869;50.990;6.962;2022-07-12T03:02:49;16.98;;;14.20;;
49978;SDS011;35869;50.990;6.962;2022-07-12T03:07:49;16.23;;;13.07;;
49978;SDS011;35869;50.990;6.962;2022-07-12T03:12:49;22.70;;;14.95;;
49978;SDS011;35869;50.990;6.962;2022-07-12T03:17:50;16.40;;;14.00;;
49978;SDS011;35869;50.990;6.962;2022-07-12T03:22:50;16.52;;;13.18;;
49978;SDS011;35869;50.990;6.962;2022-07-12T03:27:50;15.13;;;13.50;;
49978;SDS011;35869;50.990;6.962;2022-07-12T03:37:51;15.82;;;13.13;;
49978;SDS011;35869;50.990;6.962;2022-07-12T03:47:52;16.83;;;13.07;;
49978;SDS011;35869;50.990;6.962;2022-07-12T03:52:52;15.23;;;13.60;;
49978;SDS011;35869;50.990;6.962;2022-07-12T03:57:53;14.02;;;12.52;;
49978;SDS011;35869;50.990;6.962;2022-07-12T04:02:53;14.30;;;12.80;;
49978;SDS011;35869;50.990;6.962;2022-07-12T04:07:53;14.43;;;12.45;;
49978;SDS011;35869;50.990;6.962;2022-07-12T04:12:54;14.35;;;12.02;;
49978;SDS011;35869;50.990;6.962;2022-07-12T04:17:54;14.20;;;12.67;;
49978;SDS011;35869;50.990;6.962;2022-07-12T04:22:54;14.15;;;12.65;;
49978;SDS011;35869;50.990;6.962;2022-07-12T04:27:55;14.18;;;12.27;;
49978;SDS011;35869;50.990;6.962;2022-07-12T04:32:55;15.27;;;12.98;;
49978;SDS011;35869;50.990;6.962;2022-07-12T04:37:55;16.45;;;12.80;;
49978;SDS011;35869;50.990;6.962;2022-07-12T04:42:55;15.43;;;13.68;;
49978;SDS011;35869;50.990;6.962;2022-07-12T04:47:56;19.13;;;14.97;;
49978;SDS011;35869;50.990;6.962;2022-07-12T04:52:56;16.25;;;14.40;;
49978;SDS011;35869;50.990;6.962;2022-07-12T04:57:56;20.33;;;16.48;;
49978;SDS011;35869;50.990;6.962;2022-07-12T05:02:56;20.50;;;16.48;;
49978;SDS011;35869;50.990;6.962;2022-07-12T05:07:57;21.00;;;17.05;;
49978;SDS011;35869;50.990;6.962;2022-07-12T05:12:57;24.05;;;18.27;;
49978;SDS011;35869;50.990;6.962;2022-07-12T05:17:57;21.70;;;17.57;;
49978;SDS011;35869;50.990;6.962;2022-07-12T05:22:57;23.25;;;17.88;;
49978;SDS011;35869;50.990;6.962;2022-07-12T05:27:58;21.52;;;17.27;;
49978;SDS011;35869;50.990;6.962;2022-07-12T05:32:58;23.52;;;18.65;;
49978;SDS011;35869;50.990;6.962;2022-07-12T05:37:58;21.73;;;18.30;;
49978;SDS011;35869;50.990;6.962;2022-07-12T05:42:58;30.52;;;19.50;;
49978;SDS011;35869;50.990;6.962;2022-07-12T05:47:59;22.30;;;18.50;;
49978;SDS011;35869;50.990;6.962;2022-07-12T05:52:59;22.42;;;19.40;;
49978;SDS011;35869;50.990;6.962;2022-07-12T05:57:59;26.55;;;18.88;;
49978;SDS011;35869;50.990;6.962;2022-07-12T06:02:59;26.33;;;19.92;;
49978;SDS011;35869;50.990;6.962;2022-07-12T06:08:00;24.60;;;18.67;;
49978;SDS011;35869;50.990;6.962;2022-07-12T06:13:00;26.50;;;19.58;;
49978;SDS011;35869;50.990;6.962;2022-07-12T06:23:02;23.25;;;18.38;;
49978;SDS011;35869;50.990;6.962;2022-07-12T06:28:03;27.93;;;18.40;;
49978;SDS011;35869;50.990;6.962;2022-07-12T06:33:04;22.67;;;17.40;;
49978;SDS011;35869;50.990;6.962;2022-07-12T06:38:04;21.80;;;16.38;;
49978;SDS011;35869;50.990;6.962;2022-07-12T06:43:08;24.48;;;18.10;;
49978;SDS011;35869;50.990;6.962;2022-07-12T06:48:09;21.33;;;17.63;;
49978;SDS011;35869;50.990;6.962;2022-07-12T06:53:12;21.67;;;16.50;;
49978;SDS011;35869;50.990;6.962;2022-07-12T06:58:13;25.17;;;16.83;;
49978;SDS011;35869;50.990;6.962;2022-07-12T07:03:13;18.30;;;14.60;;
49978;SDS011;35869;50.990;6.962;2022-07-12T07:08:14;22.33;;;15.52;;
49978;SDS011;35869;50.990;6.962;2022-07-12T07:13:14;18.50;;;13.63;;
49978;SDS011;35869;50.990;6.962;2022-07-12T07:18:14;18.70;;;13.63;;
49978;SDS011;35869;50.990;6.962;2022-07-12T07:23:14;16.45;;;12.13;;
49978;SDS011;35869;50.990;6.962;2022-07-12T07:28:15;12.80;;;10.80;;
49978;SDS011;35869;50.990;6.962;2022-07-12T07:33:15;16.77;;;13.35;;
49978;SDS011;35869;50.990;6.962;2022-07-12T07:38:15;16.77;;;11.50;;
49978;SDS011;35869;50.990;6.962;2022-07-12T07:48:16;17.20;;;10.85;;
49978;SDS011;35869;50.990;6.962;2022-07-12T07:53:16;14.10;;;12.02;;
49978;SDS011;35869;50.990;6.962;2022-07-12T07:58:17;13.55;;;11.40;;
49978;SDS011;35869;50.990;6.962;2022-07-12T08:03:18;13.57;;;10.13;;
49978;SDS011;35869;50.990;6.962;2022-07-12T08:08:21;12.85;;;9.82;;
49978;SDS011;35869;50.990;6.962;2022-07-12T08:13:22;13.20;;;9.25;;
49978;SDS011;35869;50.990;6.962;2022-07-12T08:18:22;12.73;;;9.32;;
49978;SDS011;35869;50.990;6.962;2022-07-12T08:23:23;13.40;;;10.27;;
49978;SDS011;35869;50.990;6.962;2022-07-12T08:28:23;11.70;;;8.87;;
49978;SDS011;35869;50.990;6.962;2022-07-12T08:33:23;10.83;;;9.03;;
49978;SDS011;35869;50.990;6.962;2022-07-12T08:38:23;9.10;;;7.95;;
49978;SDS011;35869;50.990;6.962;2022-07-12T08:43:24;8.97;;;8.07;;
49978;SDS011;35869;50.990;6.962;2022-07-12T08:48:24;10.05;;;7.32;;
49978;SDS011;35869;50.990;6.962;2022-07-12T08:53:24;9.43;;;7.70;;
49978;SDS011;35869;50.990;6.962;2022-07-12T08:58:25;8.53;;;6.17;;
49978;SDS011;35869;50.990;6.962;2022-07-12T09:03:25;8.27;;;7.00;;
49978;SDS011;35869;50.990;6.962;2022-07-12T09:18:50;5.35;;;4.50;;
49978;SDS011;35869;50.990;6.962;2022-07-12T09:23:54;5.65;;;4.28;;
49978;SDS011;35869;50.990;6.962;2022-07-12T09:28:55;8.57;;;3.78;;
49978;SDS011;35869;50.990;6.962;2022-07-12T09:34:05;5.03;;;4.13;;
49978;SDS011;35869;50.990;6.962;2022-07-12T09:39:05;4.63;;;4.23;;
49978;SDS011;35869;50.990;6.962;2022-07-12T09:44:05;6.03;;;3.63;;
49978;SDS011;35869;50.990;6.962;2022-07-12T09:49:07;4.07;;;3.42;;
49978;SDS011;35869;50.990;6.962;2022-07-12T09:54:09;2.88;;;2.58;;
49978;SDS011;35869;50.990;6.962;2022-07-12T09:59:14;3.20;;;2.40;;
49978;SDS011;35869;50.990;6.962;2022-07-12T10:04:20;2.95;;;2.65;;
49978;SDS011;35869;50.990;6.962;2022-07-12T10:09:22;5.65;;;2.65;;
49978;SDS011;35869;50.990;6.962;2022-07-12T10:14:23;3.47;;;2.63;;
49978;SDS011;35869;50.990;6.962;2022-07-12T10:19:24;3.35;;;2.50;;
49978;SDS011;35869;50.990;6.962;2022-07-12T10:24:44;3.03;;;2.72;;
49978;SDS011;35869;50.990;6.962;2022-07-12T10:29:51;4.75;;;4.32;;
49978;SDS011;35869;50.990;6.962;2022-07-12T10:40:15;5.40;;;3.15;;
49978;SDS011;35869;50.990;6.962;2022-07-12T10:45:17;4.18;;;2.55;;
49978;SDS011;35869;50.990;6.962;2022-07-12T10:50:17;2.53;;;1.85;;
49978;SDS011;35869;50.990;6.962;2022-07-12T10:55:18;3.10;;;1.70;;
49978;SDS011;35869;50.990;6.962;2022-07-12T11:00:19;4.88;;;2.40;;
49978;SDS011;35869;50.990;6.962;2022-07-12T11:05:25;3.63;;;2.50;;
49978;SDS011;35869;50.990;6.962;2022-07-12T11:10:26;4.85;;;1.85;;
49978;SDS011;35869;50.990;6.962;2022-07-12T11:15:26;3.45;;;1.88;;
49978;SDS011;35869;50.990;6.962;2022-07-12T11:20:27;3.95;;;1.92;;
49978;SDS011;35869;50.990;6.962;2022-07-12T11:25:28;2.15;;;1.63;;
49978;SDS011;35869;50.990;6.962;2022-07-12T11:30:28;2.53;;;1.83;;
49978;SDS011;35869;50.990;6.962;2022-07-12T11:35:29;2.42;;;2.22;;
49978;SDS011;35869;50.990;6.962;2022-07-12T11:40:30;2.60;;;1.45;;
49978;SDS011;35869;50.990;6.962;2022-07-12T11:45:31;3.47;;;1.60;;
49978;SDS011;35869;50.990;6.962;2022-07-12T11:50:33;2.22;;;1.42;;
49978;SDS011;35869;50.990;6.962;2022-07-12T11:55:40;1.88;;;1.52;;
49978;SDS011;35869;50.990;6.962;2022-07-12T12:00:42;1.58;;;1.40;;
49978;SDS011;35869;50.990;6.962;2022-07-12T12:05:43;4.55;;;1.80;;
49978;SDS011;35869;50.990;6.962;2022-07-12T12:11:25;1.20;;;1.10;;
49978;SDS011;35869;50.990;6.962;2022-07-12T12:16:12;1.98;;;1.83;;
49978;SDS011;35869;50.990;6.962;2022-07-12T12:21:13;3.90;;;1.90;;
49978;SDS011;35869;50.990;6.962;2022-07-12T12:26:15;1.88;;;1.30;;
49978;SDS011;35869;50.990;6.962;2022-07-12T12:31:16;2.05;;;1.33;;
49978;SDS011;35869;50.990;6.962;2022-07-12T12:41:25;3.17;;;1.23;;
49978;SDS011;35869;50.990;6.962;2022-07-12T12:46:42;1.40;;;1.30;;
49978;SDS011;35869;50.990;6.962;2022-07-12T12:51:56;1.67;;;1.58;;
49978;SDS011;35869;50.990;6.962;2022-07-12T12:56:57;2.53;;;1.42;;
49978;SDS011;35869;50.990;6.962;2022-07-12T13:01:57;3.78;;;1.70;;
49978;SDS011;35869;50.990;6.962;2022-07-12T13:06:58;2.77;;;1.17;;
49978;SDS011;35869;50.990;6.962;2022-07-12T13:11:58;1.92;;;1.38;;
49978;SDS011;35869;50.990;6.962;2022-07-12T13:16:59;1.15;;;1.08;;
49978;SDS011;35869;50.990;6.962;2022-07-12T13:21:59;2.75;;;1.20;;
49978;SDS011;35869;50.990;6.962;2022-07-12T13:26:59;1.67;;;1.20;;
49978;SDS011;35869;50.990;6.962;2022-07-12T13:32:00;3.03;;;1.40;;
49978;SDS011;35869;50.990;6.962;2022-07-12T13:37:00;4.95;;;1.20;;
49978;SDS011;35869;50.990;6.962;2022-07-12T13:42:00;1.75;;;1.35;;
49978;SDS011;35869;50.990;6.962;2022-07-12T13:47:01;2.80;;;1.20;;
49978;SDS011;35869;50.990;6.962;2022-07-12T13:52:01;3.27;;;1.30;;
49978;SDS011;35869;50.990;6.962;2022-07-12T13:57:02;1.37;;;1.20;;
49978;SDS011;35869;50.990;6.962;2022-07-12T14:02:03;3.63;;;1.13;;
49978;SDS011;35869;50.990;6.962;2022-07-12T14:07:04;1.55;;;1.10;;
49978;SDS011;35869;50.990;6.962;2022-07-12T14:12:05;3.67;;;1.67;;
49978;SDS011;35869;50.990;6.962;2022-07-12T14:17:05;4.33;;;1.60;;
49978;SDS011;35869;50.990;6.962;2022-07-12T14:22:05;1.80;;;1.10;;
49978;SDS011;35869;50.990;6.962;2022-07-12T14:27:06;1.47;;;1.30;;
49978;SDS011;35869;50.990;6.962;2022-07-12T14:32:06;1.38;;;1.27;;
49978;SDS011;35869;50.990;6.962;2022-07-12T14:37:07;7.40;;;1.60;;
49978;SDS011;35869;50.990;6.962;2022-07-12T14:42:07;1.80;;;1.20;;
49978;SDS011;35869;50.990;6.962;2022-07-12T14:47:08;4.43;;;1.20;;
49978;SDS011;35869;50.990;6.962;2022-07-12T14:52:08;5.78;;;1.40;;
49978;SDS011;35869;50.990;6.962;2022-07-12T14:57:09;2.13;;;1.42;;
49978;SDS011;35869;50.990;6.962;2022-07-12T15:02:09;2.35;;;1.38;;
49978;SDS011;35869;50.990;6.962;2022-07-12T15:07:09;3.47;;;1.40;;
49978;SDS011;35869;50.990;6.962;2022-07-12T15:12:09;1.88;;;1.45;;
49978;SDS011;35869;50.990;6.962;2022-07-12T15:17:10;2.33;;;1.20;;
49978;SDS011;35869;50.990;6.962;2022-07-12T15:22:10;6.18;;;1.13;;
49978;SDS011;35869;50.990;6.962;2022-07-12T15:27:11;1.20;;;1.10;;
49978;SDS011;35869;50.990;6.962;2022-07-12T15:32:13;4.18;;;1.10;;
49978;SDS011;35869;50.990;6.962;2022-07-12T15:37:13;3.17;;;1.00;;
49978;SDS011;35869;50.990;6.962;2022-07-12T15:42:13;1.45;;;1.00;;
49978;SDS011;35869;50.990;6.962;2022-07-12T15:47:14;2.00;;;1.00;;
49978;SDS011;35869;50.990;6.962;2022-07-12T15:52:14;2.33;;;0.90;;
49978;SDS011;35869;50.990;6.962;2022-07-12T15:57:14;2.17;;;1.17;;
49978;SDS011;35869;50.990;6.962;2022-07-12T16:02:15;1.93;;;1.10;;
49978;SDS011;35869;50.990;6.962;2022-07-12T16:07:15;3.67;;;1.10;;
49978;SDS011;35869;50.990;6.962;2022-07-12T16:12:15;1.40;;;1.30;;
49978;SDS011;35869;50.990;6.962;2022-07-12T16:17:15;2.92;;;1.27;;
49978;SDS011;35869;50.990;6.962;2022-07-12T16:22:16;4.83;;;1.43;;
49978;SDS011;35869;50.990;6.962;2022-07-12T16:27:16;4.97;;;1.40;;
49978;SDS011;35869;50.990;6.962;2022-07-12T16:32:16;4.88;;;1.50;;
49978;SDS011;35869;50.990;6.962;2022-07-12T16:37:17;2.95;;;1.30;;
49978;SDS011;35869;50.990;6.962;2022-07-12T16:42:17;3.63;;;1.20;;
49978;SDS011;35869;50.990;6.962;2022-07-12T16:47:17;2.33;;;1.50;;
49978;SDS011;35869;50.990;6.962;2022-07-12T16:52:17;1.75;;;1.27;;
49978;SDS011;35869;50.990;6.962;2022-07-12T16:57:18;2.15;;;1.30;;
49978;SDS011;35869;50.990;6.962;2022-07-12T17:02:18;1.30;;;1.20;;
49978;SDS011;35869;50.990;6.962;2022-07-12T17:07:18;1.50;;;1.40;;
49978;SDS011;35869;50.990;6.962;2022-07-12T17:12:19;1.20;;;1.10;;
49978;SDS011;35869;50.990;6.962;2022-07-12T17:17:19;1.90;;;1.40;;
49978;SDS011;35869;50.990;6.962;2022-07-12T17:22:19;2.27;;;1.40;;
49978;SDS011;35869;50.990;6.962;2022-07-12T17:27:20;4.80;;;1.60;;
49978;SDS011;35869;50.990;6.962;2022-07-12T17:32:20;2.58;;;1.42;;
49978;SDS011;35869;50.990;6.962;2022-07-12T17:37:20;2.22;;;1.50;;
49978;SDS011;35869;50.990;6.962;2022-07-12T17:42:20;2.58;;;1.67;;
49978;SDS011;35869;50.990;6.962;2022-07-12T17:47:21;2.33;;;1.50;;
49978;SDS011;35869;50.990;6.962;2022-07-12T17:52:21;2.92;;;1.35;;
49978;SDS011;35869;50.990;6.962;2022-07-12T17:57:21;3.30;;;1.50;;
49978;SDS011;35869;50.990;6.962;2022-07-12T18:02:21;5.07;;;1.73;;
49978;SDS011;35869;50.990;6.962;2022-07-12T18:07:22;2.75;;;1.70;;
49978;SDS011;35869;50.990;6.962;2022-07-12T18:17:22;1.50;;;1.40;;
49978;SDS011;35869;50.990;6.962;2022-07-12T18:27:23;5.80;;;1.25;;
49978;SDS011;35869;50.990;6.962;2022-07-12T18:32:23;2.53;;;1.40;;
49978;SDS011;35869;50.990;6.962;2022-07-12T18:42:23;4.70;;;1.23;;
49978;SDS011;35869;50.990;6.962;2022-07-12T18:47:24;1.83;;;1.50;;
49978;SDS011;35869;50.990;6.962;2022-07-12T18:57:24;3.07;;;1.20;;
49978;SDS011;35869;50.990;6.962;2022-07-12T19:02:24;2.50;;;1.60;;
49978;SDS011;35869;50.990;6.962;2022-07-12T19:12:25;3.15;;;1.38;;
49978;SDS011;35869;50.990;6.962;2022-07-12T19:17:25;2.97;;;1.45;;
49978;SDS011;35869;50.990;6.962;2022-07-12T19:22:25;3.35;;;1.55;;
49978;SDS011;35869;50.990;6.962;2022-07-12T19:27:26;2.60;;;1.37;;
49978;SDS011;35869;50.990;6.962;2022-07-12T19:32:26;1.95;;;1.50;;
49978;SDS011;35869;50.990;6.962;2022-07-12T19:37:26;2.55;;;1.65;;
49978;SDS011;35869;50.990;6.962;2022-07-12T19:42:26;2.03;;;1.75;;
49978;SDS011;35869;50.990;6.962;2022-07-12T19:47:27;1.97;;;1.50;;
49978;SDS011;35869;50.990;6.962;2022-07-12T19:52:27;3.17;;;1.57;;
49978;SDS011;35869;50.990;6.962;2022-07-12T19:57:27;2.58;;;2.00;;
49978;SDS011;35869;50.990;6.962;2022-07-12T20:02:28;3.38;;;2.10;;
49978;SDS011;35869;50.990;6.962;2022-07-12T20:07:28;3.37;;;1.67;;
49978;SDS011;35869;50.990;6.962;2022-07-12T20:12:28;3.28;;;1.73;;
49978;SDS011;35869;50.990;6.962;2022-07-12T20:17:29;4.10;;;2.10;;
49978;SDS011;35869;50.990;6.962;2022-07-12T20:22:29;5.57;;;2.40;;
49978;SDS011;35869;50.990;6.962;2022-07-12T20:27:29;5.15;;;2.33;;
49978;SDS011;35869;50.990;6.962;2022-07-12T20:32:29;2.37;;;2.13;;
49978;SDS011;35869;50.990;6.962;2022-07-12T20:37:30;3.53;;;2.20;;
49978;SDS011;35869;50.990;6.962;2022-07-12T20:42:30;2.20;;;2.00;;
49978;SDS011;35869;50.990;6.962;2022-07-12T20:47:30;2.33;;;2.10;;
49978;SDS011;35869;50.990;6.962;2022-07-12T20:52:34;3.25;;;2.03;;
49978;SDS011;35869;50.990;6.962;2022-07-12T20:57:34;5.00;;;2.30;;
49978;SDS011;35869;50.990;6.962;2022-07-12T21:02:34;4.88;;;2.25;;
49978;SDS011;35869;50.990;6.962;2022-07-12T21:07:35;2.47;;;2.28;;
49978;SDS011;35869;50.990;6.962;2022-07-12T21:12:35;2.87;;;2.00;;
49978;SDS011;35869;50.990;6.962;2022-07-12T21:17:38;3.40;;;2.20;;
49978;SDS011;35869;50.990;6.962;2022-07-12T21:22:42;4.35;;;2.40;;
49978;SDS011;35869;50.990;6.962;2022-07-12T21:27:42;2.97;;;2.28;;
49978;SDS011;35869;50.990;6.962;2022-07-12T21:32:43;3.50;;;2.78;;
49978;SDS011;35869;50.990;6.962;2022-07-12T21:37:43;3.58;;;3.13;;
49978;SDS011;35869;50.990;6.962;2022-07-12T21:42:44;4.10;;;3.20;;
49978;SDS011;35869;50.990;6.962;2022-07-12T21:47:44;4.47;;;3.10;;
49978;SDS011;35869;50.990;6.962;2022-07-12T21:52:44;3.17;;;2.90;;
49978;SDS011;35869;50.990;6.962;2022-07-12T21:57:44;3.50;;;3.20;;
49978;SDS011;35869;50.990;6.962;2022-07-12T22:02:45;3.38;;;3.05;;
49978;SDS011;35869;50.990;6.962;2022-07-12T22:07:46;3.55;;;3.03;;
49978;SDS011;35869;50.990;6.962;2022-07-12T22:12:46;3.85;;;3.30;;
49978;SDS011;35869;50.990;6.962;2022-07-12T22:17:46;4.82;;;3.78;;
49978;SDS011;35869;50.990;6.962;2022-07-12T22:22:47;5.20;;;3.67;;
49978;SDS011;35869;50.990;6.962;2022-07-12T22:27:47;9.60;;;3.67;;
49978;SDS011;35869;50.990;6.962;2022-07-12T22:32:47;4.60;;;4.13;;
49978;SDS011;35869;50.990;6.962;2022-07-12T22:37:47;6.60;;;3.70;;
49978;SDS011;35869;50.990;6.962;2022-07-12T22:42:48;8.05;;;3.83;;
49978;SDS011;35869;50.990;6.962;2022-07-12T22:47:48;3.65;;;3.35;;
49978;SDS011;35869;50.990;6.962;2022-07-12T22:52:48;6.47;;;4.15;;
49978;SDS011;35869;50.990;6.962;2022-07-12T22:57:48;5.97;;;3.60;;
49978;SDS011;35869;50.990;6.962;2022-07-12T23:02:49;7.35;;;4.25;;
49978;SDS011;35869;50.990;6.962;2022-07-12T23:07:49;5.28;;;3.67;;
49978;SDS011;35869;50.990;6.962;2022-07-12T23:12:49;5.15;;;3.75;;
49978;SDS011;35869;50.990;6.962;2022-07-12T23:17:49;4.70;;;3.63;;
49978;SDS011;35869;50.990;6.962;2022-07-12T23:22:50;4.20;;;3.40;;
49978;SDS011;35869;50.990;6.962;2022-07-12T23:27:50;4.47;;;3.70;;
49978;SDS011;35869;50.990;6.962;2022-07-12T23:32:50;3.85;;;3.03;;
49978;SDS011;35869;50.990;6.962;2022-07-12T23:37:50;3.72;;;3.15;;
49978;SDS011;35869;50.990;6.962;2022-07-12T23:42:51;4.68;;;3.33;;
49978;SDS011;35869;50.990;6.962;2022-07-12T23:47:51;4.65;;;3.40;;
49978;SDS011;35869;50.990;6.962;2022-07-12T23:52:51;7.28;;;4.20;;
49978;SDS011;35869;50.990;6.962;2022-07-12T23:57:51;5.07;;;3.17;;
